sensor_id;sensor_type;location;lat;lon;timestamp;P1;durP1;ratioP1;P2;durP2;ratioP2
59786;SDS011;45672;51.612;5.536;2023-10-31T00:00:26;12.40;;;7.85;;
59786;SDS011;45672;51.612;5.536;2023-10-31T00:02:51;9.52;;;8.02;;
59786;SDS011;45672;51.612;5.536;2023-10-31T00:05:17;13.75;;;9.35;;
59786;SDS011;45672;51.612;5.536;2023-10-31T00:07:42;13.15;;;9.00;;
59786;SDS011;45672;51.612;5.536;2023-10-31T00:10:07;13.82;;;11.35;;
59786;SDS011;45672;51.612;5.536;2023-10-31T00:12:34;13.43;;;11.20;;
59786;SDS011;45672;51.612;5.536;2023-10-31T00:14:59;14.80;;;11.93;;
59786;SDS011;45672;51.612;5.536;2023-10-31T00:17:24;13.70;;;12.02;;
59786;SDS011;45672;51.612;5.536;2023-10-31T00:19:50;19.33;;;12.90;;
59786;SDS011;45672;51.612;5.536;2023-10-31T00:22:15;18.90;;;14.30;;
59786;SDS011;45672;51.612;5.536;2023-10-31T00:24:40;18.88;;;13.82;;
59786;SDS011;45672;51.612;5.536;2023-10-31T00:27:06;18.02;;;14.00;;
59786;SDS011;45672;51.612;5.536;2023-10-31T00:29:31;17.38;;;13.88;;
59786;SDS011;45672;51.612;5.536;2023-10-31T00:31:57;17.63;;;15.05;;
59786;SDS011;45672;51.612;5.536;2023-10-31T00:34:22;19.80;;;14.68;;
59786;SDS011;45672;51.612;5.536;2023-10-31T00:36:47;19.63;;;13.98;;
59786;SDS011;45672;51.612;5.536;2023-10-31T00:39:12;20.90;;;13.00;;
59786;SDS011;45672;51.612;5.536;2023-10-31T00:41:39;16.80;;;12.88;;
59786;SDS011;45672;51.612;5.536;2023-10-31T00:44:04;16.00;;;12.32;;
59786;SDS011;45672;51.612;5.536;2023-10-31T00:46:30;15.88;;;12.15;;
59786;SDS011;45672;51.612;5.536;2023-10-31T00:48:55;14.63;;;11.65;;
59786;SDS011;45672;51.612;5.536;2023-10-31T00:51:20;12.15;;;10.48;;
59786;SDS011;45672;51.612;5.536;2023-10-31T00:53:46;10.00;;;8.73;;
59786;SDS011;45672;51.612;5.536;2023-10-31T00:56:11;12.95;;;7.88;;
59786;SDS011;45672;51.612;5.536;2023-10-31T00:58:37;8.25;;;6.88;;
59786;SDS011;45672;51.612;5.536;2023-10-31T01:01:02;9.68;;;6.20;;
59786;SDS011;45672;51.612;5.536;2023-10-31T01:03:28;9.02;;;6.10;;
59786;SDS011;45672;51.612;5.536;2023-10-31T01:05:53;7.15;;;4.80;;
59786;SDS011;45672;51.612;5.536;2023-10-31T01:08:18;9.40;;;4.60;;
59786;SDS011;45672;51.612;5.536;2023-10-31T01:10:44;5.22;;;4.07;;
59786;SDS011;45672;51.612;5.536;2023-10-31T01:13:10;4.00;;;3.58;;
59786;SDS011;45672;51.612;5.536;2023-10-31T01:15:36;7.45;;;3.67;;
59786;SDS011;45672;51.612;5.536;2023-10-31T01:18:01;8.35;;;4.60;;
59786;SDS011;45672;51.612;5.536;2023-10-31T01:20:26;8.52;;;4.43;;
59786;SDS011;45672;51.612;5.536;2023-10-31T01:22:52;9.07;;;4.55;;
59786;SDS011;45672;51.612;5.536;2023-10-31T01:25:17;8.93;;;4.25;;
59786;SDS011;45672;51.612;5.536;2023-10-31T01:27:42;7.38;;;4.07;;
59786;SDS011;45672;51.612;5.536;2023-10-31T01:30:08;7.55;;;4.50;;
59786;SDS011;45672;51.612;5.536;2023-10-31T01:32:34;9.45;;;5.55;;
59786;SDS011;45672;51.612;5.536;2023-10-31T01:34:59;10.18;;;5.43;;
59786;SDS011;45672;51.612;5.536;2023-10-31T01:37:24;11.35;;;6.60;;
59786;SDS011;45672;51.612;5.536;2023-10-31T01:39:50;12.55;;;7.13;;
59786;SDS011;45672;51.612;5.536;2023-10-31T01:42:16;13.77;;;7.90;;
59786;SDS011;45672;51.612;5.536;2023-10-31T01:44:42;21.92;;;11.20;;
59786;SDS011;45672;51.612;5.536;2023-10-31T01:47:07;20.98;;;12.13;;
59786;SDS011;45672;51.612;5.536;2023-10-31T01:49:32;23.42;;;11.95;;
59786;SDS011;45672;51.612;5.536;2023-10-31T01:52:01;21.15;;;12.57;;
59786;SDS011;45672;51.612;5.536;2023-10-31T01:54:28;23.45;;;14.35;;
59786;SDS011;45672;51.612;5.536;2023-10-31T01:56:54;25.73;;;16.00;;
59786;SDS011;45672;51.612;5.536;2023-10-31T01:59:23;30.25;;;17.17;;
59786;SDS011;45672;51.612;5.536;2023-10-31T02:01:49;32.05;;;18.20;;
59786;SDS011;45672;51.612;5.536;2023-10-31T02:04:15;32.90;;;18.70;;
59786;SDS011;45672;51.612;5.536;2023-10-31T02:06:40;38.83;;;22.30;;
59786;SDS011;45672;51.612;5.536;2023-10-31T02:09:05;31.20;;;19.85;;
59786;SDS011;45672;51.612;5.536;2023-10-31T02:11:31;36.25;;;20.80;;
59786;SDS011;45672;51.612;5.536;2023-10-31T02:13:56;32.65;;;20.25;;
59786;SDS011;45672;51.612;5.536;2023-10-31T02:16:22;37.13;;;21.15;;
59786;SDS011;45672;51.612;5.536;2023-10-31T02:18:47;36.67;;;21.67;;
59786;SDS011;45672;51.612;5.536;2023-10-31T02:21:12;36.35;;;21.42;;
59786;SDS011;45672;51.612;5.536;2023-10-31T02:23:38;40.42;;;23.13;;
59786;SDS011;45672;51.612;5.536;2023-10-31T02:26:03;43.33;;;23.42;;
59786;SDS011;45672;51.612;5.536;2023-10-31T02:28:28;43.30;;;25.05;;
59786;SDS011;45672;51.612;5.536;2023-10-31T02:30:54;42.42;;;24.70;;
59786;SDS011;45672;51.612;5.536;2023-10-31T02:33:20;38.70;;;24.33;;
59786;SDS011;45672;51.612;5.536;2023-10-31T02:35:45;45.90;;;27.42;;
59786;SDS011;45672;51.612;5.536;2023-10-31T02:38:10;48.15;;;26.35;;
59786;SDS011;45672;51.612;5.536;2023-10-31T02:40:36;50.78;;;29.23;;
59786;SDS011;45672;51.612;5.536;2023-10-31T02:43:01;46.80;;;27.23;;
59786;SDS011;45672;51.612;5.536;2023-10-31T02:45:27;48.35;;;27.45;;
59786;SDS011;45672;51.612;5.536;2023-10-31T02:47:52;52.13;;;31.20;;
59786;SDS011;45672;51.612;5.536;2023-10-31T02:50:18;50.80;;;28.77;;
59786;SDS011;45672;51.612;5.536;2023-10-31T02:52:43;52.13;;;31.27;;
59786;SDS011;45672;51.612;5.536;2023-10-31T02:55:09;48.88;;;29.55;;
59786;SDS011;45672;51.612;5.536;2023-10-31T02:57:34;55.88;;;29.77;;
59786;SDS011;45672;51.612;5.536;2023-10-31T02:59:59;54.35;;;30.58;;
59786;SDS011;45672;51.612;5.536;2023-10-31T03:02:25;61.20;;;32.30;;
59786;SDS011;45672;51.612;5.536;2023-10-31T03:04:50;51.35;;;30.45;;
59786;SDS011;45672;51.612;5.536;2023-10-31T03:07:15;52.50;;;31.23;;
59786;SDS011;45672;51.612;5.536;2023-10-31T03:09:40;52.38;;;31.50;;
59786;SDS011;45672;51.612;5.536;2023-10-31T03:12:06;52.85;;;30.50;;
59786;SDS011;45672;51.612;5.536;2023-10-31T03:14:31;57.47;;;31.10;;
59786;SDS011;45672;51.612;5.536;2023-10-31T03:16:56;54.13;;;31.05;;
59786;SDS011;45672;51.612;5.536;2023-10-31T03:19:22;57.35;;;31.60;;
59786;SDS011;45672;51.612;5.536;2023-10-31T03:21:47;56.45;;;31.70;;
59786;SDS011;45672;51.612;5.536;2023-10-31T03:24:12;57.33;;;34.17;;
59786;SDS011;45672;51.612;5.536;2023-10-31T03:26:38;56.88;;;33.05;;
59786;SDS011;45672;51.612;5.536;2023-10-31T03:29:03;46.13;;;29.08;;
59786;SDS011;45672;51.612;5.536;2023-10-31T03:31:28;52.40;;;30.30;;
59786;SDS011;45672;51.612;5.536;2023-10-31T03:33:54;51.78;;;31.50;;
59786;SDS011;45672;51.612;5.536;2023-10-31T03:36:19;55.30;;;31.95;;
59786;SDS011;45672;51.612;5.536;2023-10-31T03:38:45;54.00;;;31.27;;
59786;SDS011;45672;51.612;5.536;2023-10-31T03:41:10;55.88;;;31.40;;
59786;SDS011;45672;51.612;5.536;2023-10-31T03:43:36;50.88;;;31.65;;
59786;SDS011;45672;51.612;5.536;2023-10-31T03:46:02;54.95;;;32.42;;
59786;SDS011;45672;51.612;5.536;2023-10-31T03:48:27;50.13;;;29.23;;
59786;SDS011;45672;51.612;5.536;2023-10-31T03:50:53;49.60;;;30.08;;
59786;SDS011;45672;51.612;5.536;2023-10-31T03:53:18;49.00;;;31.33;;
59786;SDS011;45672;51.612;5.536;2023-10-31T03:55:44;50.75;;;31.50;;
59786;SDS011;45672;51.612;5.536;2023-10-31T03:58:09;49.63;;;31.65;;
59786;SDS011;45672;51.612;5.536;2023-10-31T04:00:34;53.15;;;32.60;;
59786;SDS011;45672;51.612;5.536;2023-10-31T04:03:00;54.58;;;32.40;;
59786;SDS011;45672;51.612;5.536;2023-10-31T04:05:26;55.00;;;33.75;;
59786;SDS011;45672;51.612;5.536;2023-10-31T04:07:51;56.50;;;33.55;;
59786;SDS011;45672;51.612;5.536;2023-10-31T04:10:17;56.78;;;32.25;;
59786;SDS011;45672;51.612;5.536;2023-10-31T04:12:44;57.22;;;34.08;;
59786;SDS011;45672;51.612;5.536;2023-10-31T04:15:10;58.42;;;35.70;;
59786;SDS011;45672;51.612;5.536;2023-10-31T04:17:35;55.40;;;34.88;;
59786;SDS011;45672;51.612;5.536;2023-10-31T04:20:01;56.78;;;36.05;;
59786;SDS011;45672;51.612;5.536;2023-10-31T04:22:27;51.47;;;32.70;;
59786;SDS011;45672;51.612;5.536;2023-10-31T04:24:52;59.15;;;33.92;;
59786;SDS011;45672;51.612;5.536;2023-10-31T04:27:18;53.75;;;33.15;;
59786;SDS011;45672;51.612;5.536;2023-10-31T04:29:43;55.70;;;34.53;;
59786;SDS011;45672;51.612;5.536;2023-10-31T04:32:09;56.47;;;34.70;;
59786;SDS011;45672;51.612;5.536;2023-10-31T04:34:35;52.70;;;32.90;;
59786;SDS011;45672;51.612;5.536;2023-10-31T04:37:00;52.67;;;32.10;;
59786;SDS011;45672;51.612;5.536;2023-10-31T04:39:25;52.40;;;33.55;;
59786;SDS011;45672;51.612;5.536;2023-10-31T04:41:51;55.10;;;33.10;;
59786;SDS011;45672;51.612;5.536;2023-10-31T04:44:16;52.05;;;33.67;;
59786;SDS011;45672;51.612;5.536;2023-10-31T04:46:42;52.92;;;31.95;;
59786;SDS011;45672;51.612;5.536;2023-10-31T04:49:07;50.67;;;32.20;;
59786;SDS011;45672;51.612;5.536;2023-10-31T04:51:33;51.03;;;31.67;;
59786;SDS011;45672;51.612;5.536;2023-10-31T04:54:02;54.50;;;33.58;;
59786;SDS011;45672;51.612;5.536;2023-10-31T04:56:28;50.70;;;30.92;;
59786;SDS011;45672;51.612;5.536;2023-10-31T04:58:53;52.90;;;34.50;;
59786;SDS011;45672;51.612;5.536;2023-10-31T05:01:18;49.72;;;29.98;;
59786;SDS011;45672;51.612;5.536;2023-10-31T05:03:44;55.67;;;32.22;;
59786;SDS011;45672;51.612;5.536;2023-10-31T05:06:10;48.72;;;31.38;;
59786;SDS011;45672;51.612;5.536;2023-10-31T05:08:35;49.38;;;30.13;;
59786;SDS011;45672;51.612;5.536;2023-10-31T05:11:00;50.47;;;30.67;;
59786;SDS011;45672;51.612;5.536;2023-10-31T05:13:25;45.90;;;28.45;;
59786;SDS011;45672;51.612;5.536;2023-10-31T05:15:51;44.95;;;27.13;;
59786;SDS011;45672;51.612;5.536;2023-10-31T05:18:17;42.47;;;26.40;;
59786;SDS011;45672;51.612;5.536;2023-10-31T05:20:43;39.60;;;25.45;;
59786;SDS011;45672;51.612;5.536;2023-10-31T05:23:08;38.03;;;25.23;;
59786;SDS011;45672;51.612;5.536;2023-10-31T05:25:34;38.85;;;25.73;;
59786;SDS011;45672;51.612;5.536;2023-10-31T05:27:59;36.92;;;23.75;;
59786;SDS011;45672;51.612;5.536;2023-10-31T05:30:25;37.00;;;22.73;;
59786;SDS011;45672;51.612;5.536;2023-10-31T05:32:50;34.75;;;22.77;;
59786;SDS011;45672;51.612;5.536;2023-10-31T05:35:16;37.33;;;23.08;;
59786;SDS011;45672;51.612;5.536;2023-10-31T05:37:42;37.40;;;22.77;;
59786;SDS011;45672;51.612;5.536;2023-10-31T05:40:08;37.03;;;24.45;;
59786;SDS011;45672;51.612;5.536;2023-10-31T05:42:34;33.03;;;23.02;;
59786;SDS011;45672;51.612;5.536;2023-10-31T05:44:59;34.78;;;23.20;;
59786;SDS011;45672;51.612;5.536;2023-10-31T05:47:24;34.85;;;23.98;;
59786;SDS011;45672;51.612;5.536;2023-10-31T05:49:50;33.50;;;23.20;;
59786;SDS011;45672;51.612;5.536;2023-10-31T05:52:15;37.45;;;24.90;;
59786;SDS011;45672;51.612;5.536;2023-10-31T05:54:40;35.85;;;23.85;;
59786;SDS011;45672;51.612;5.536;2023-10-31T05:57:06;34.67;;;23.88;;
59786;SDS011;45672;51.612;5.536;2023-10-31T05:59:31;33.53;;;24.58;;
59786;SDS011;45672;51.612;5.536;2023-10-31T06:01:57;35.67;;;25.50;;
59786;SDS011;45672;51.612;5.536;2023-10-31T06:04:23;34.80;;;25.25;;
59786;SDS011;45672;51.612;5.536;2023-10-31T06:06:50;33.38;;;24.65;;
59786;SDS011;45672;51.612;5.536;2023-10-31T06:09:15;34.60;;;25.55;;
59786;SDS011;45672;51.612;5.536;2023-10-31T06:11:41;32.72;;;24.52;;
59786;SDS011;45672;51.612;5.536;2023-10-31T06:14:08;31.70;;;23.83;;
59786;SDS011;45672;51.612;5.536;2023-10-31T06:16:33;33.38;;;24.50;;
59786;SDS011;45672;51.612;5.536;2023-10-31T06:19:07;33.35;;;24.13;;
59786;SDS011;45672;51.612;5.536;2023-10-31T06:21:33;34.38;;;24.92;;
59786;SDS011;45672;51.612;5.536;2023-10-31T06:23:58;32.40;;;24.67;;
59786;SDS011;45672;51.612;5.536;2023-10-31T06:26:24;31.00;;;24.35;;
59786;SDS011;45672;51.612;5.536;2023-10-31T06:28:49;32.05;;;24.73;;
59786;SDS011;45672;51.612;5.536;2023-10-31T06:31:14;35.25;;;28.00;;
59786;SDS011;45672;51.612;5.536;2023-10-31T06:33:40;30.98;;;25.42;;
59786;SDS011;45672;51.612;5.536;2023-10-31T06:36:06;33.53;;;27.65;;
59786;SDS011;45672;51.612;5.536;2023-10-31T06:38:32;27.67;;;22.25;;
59786;SDS011;45672;51.612;5.536;2023-10-31T06:40:57;32.05;;;25.73;;
59786;SDS011;45672;51.612;5.536;2023-10-31T06:43:22;28.70;;;22.05;;
59786;SDS011;45672;51.612;5.536;2023-10-31T06:45:48;34.10;;;28.50;;
59786;SDS011;45672;51.612;5.536;2023-10-31T06:48:13;24.38;;;20.33;;
59786;SDS011;45672;51.612;5.536;2023-10-31T06:50:38;28.23;;;20.90;;
59786;SDS011;45672;51.612;5.536;2023-10-31T06:53:03;26.60;;;21.65;;
59786;SDS011;45672;51.612;5.536;2023-10-31T06:55:29;26.83;;;21.50;;
59786;SDS011;45672;51.612;5.536;2023-10-31T06:57:54;25.40;;;20.23;;
59786;SDS011;45672;51.612;5.536;2023-10-31T07:00:19;25.70;;;21.48;;
59786;SDS011;45672;51.612;5.536;2023-10-31T07:02:45;28.45;;;22.38;;
59786;SDS011;45672;51.612;5.536;2023-10-31T07:05:12;25.17;;;20.85;;
59786;SDS011;45672;51.612;5.536;2023-10-31T07:07:38;32.75;;;24.33;;
59786;SDS011;45672;51.612;5.536;2023-10-31T07:10:04;29.45;;;24.15;;
59786;SDS011;45672;51.612;5.536;2023-10-31T07:12:30;28.95;;;23.23;;
59786;SDS011;45672;51.612;5.536;2023-10-31T07:14:55;29.33;;;23.13;;
59786;SDS011;45672;51.612;5.536;2023-10-31T07:17:23;29.67;;;23.88;;
59786;SDS011;45672;51.612;5.536;2023-10-31T07:19:48;30.73;;;23.73;;
59786;SDS011;45672;51.612;5.536;2023-10-31T07:22:14;28.55;;;23.38;;
59786;SDS011;45672;51.612;5.536;2023-10-31T07:24:40;30.45;;;23.38;;
59786;SDS011;45672;51.612;5.536;2023-10-31T07:27:05;29.13;;;22.77;;
59786;SDS011;45672;51.612;5.536;2023-10-31T07:29:30;27.52;;;22.05;;
59786;SDS011;45672;51.612;5.536;2023-10-31T07:31:56;31.52;;;24.02;;
59786;SDS011;45672;51.612;5.536;2023-10-31T07:34:21;26.02;;;22.10;;
59786;SDS011;45672;51.612;5.536;2023-10-31T07:36:46;25.75;;;21.67;;
59786;SDS011;45672;51.612;5.536;2023-10-31T07:39:12;27.00;;;21.92;;
59786;SDS011;45672;51.612;5.536;2023-10-31T07:41:37;26.40;;;21.70;;
59786;SDS011;45672;51.612;5.536;2023-10-31T07:44:03;25.67;;;21.02;;
59786;SDS011;45672;51.612;5.536;2023-10-31T07:46:28;24.25;;;21.02;;
59786;SDS011;45672;51.612;5.536;2023-10-31T07:48:54;22.70;;;18.67;;
59786;SDS011;45672;51.612;5.536;2023-10-31T07:51:19;24.67;;;19.63;;
59786;SDS011;45672;51.612;5.536;2023-10-31T07:53:44;19.80;;;17.70;;
59786;SDS011;45672;51.612;5.536;2023-10-31T07:56:17;21.05;;;18.48;;
59786;SDS011;45672;51.612;5.536;2023-10-31T07:58:47;20.25;;;17.65;;
59786;SDS011;45672;51.612;5.536;2023-10-31T08:01:13;24.60;;;19.45;;
59786;SDS011;45672;51.612;5.536;2023-10-31T08:03:38;34.30;;;21.90;;
59786;SDS011;45672;51.612;5.536;2023-10-31T08:06:05;47.15;;;30.27;;
59786;SDS011;45672;51.612;5.536;2023-10-31T08:08:32;22.88;;;18.17;;
59786;SDS011;45672;51.612;5.536;2023-10-31T08:10:57;30.90;;;20.50;;
59786;SDS011;45672;51.612;5.536;2023-10-31T08:13:24;49.35;;;27.95;;
59786;SDS011;45672;51.612;5.536;2023-10-31T08:15:49;126.75;;;60.15;;
59786;SDS011;45672;51.612;5.536;2023-10-31T08:18:14;60.75;;;34.67;;
59786;SDS011;45672;51.612;5.536;2023-10-31T08:20:40;29.20;;;22.98;;
59786;SDS011;45672;51.612;5.536;2023-10-31T08:23:05;27.02;;;21.52;;
59786;SDS011;45672;51.612;5.536;2023-10-31T08:25:30;21.60;;;19.35;;
59786;SDS011;45672;51.612;5.536;2023-10-31T08:27:55;25.08;;;21.30;;
59786;SDS011;45672;51.612;5.536;2023-10-31T08:30:21;27.55;;;22.95;;
59786;SDS011;45672;51.612;5.536;2023-10-31T08:32:47;26.33;;;21.33;;
59786;SDS011;45672;51.612;5.536;2023-10-31T08:35:12;24.80;;;21.27;;
59786;SDS011;45672;51.612;5.536;2023-10-31T08:37:37;27.77;;;23.35;;
59786;SDS011;45672;51.612;5.536;2023-10-31T08:40:03;29.05;;;21.05;;
59786;SDS011;45672;51.612;5.536;2023-10-31T08:42:29;22.60;;;20.10;;
59786;SDS011;45672;51.612;5.536;2023-10-31T08:44:55;24.33;;;21.63;;
59786;SDS011;45672;51.612;5.536;2023-10-31T08:47:20;22.77;;;20.25;;
59786;SDS011;45672;51.612;5.536;2023-10-31T08:49:46;23.20;;;20.80;;
59786;SDS011;45672;51.612;5.536;2023-10-31T08:52:11;23.98;;;20.90;;
59786;SDS011;45672;51.612;5.536;2023-10-31T08:54:36;26.70;;;22.52;;
59786;SDS011;45672;51.612;5.536;2023-10-31T08:57:01;28.50;;;21.88;;
59786;SDS011;45672;51.612;5.536;2023-10-31T08:59:27;25.00;;;21.75;;
59786;SDS011;45672;51.612;5.536;2023-10-31T09:01:52;27.30;;;21.17;;
59786;SDS011;45672;51.612;5.536;2023-10-31T09:04:17;27.40;;;20.90;;
59786;SDS011;45672;51.612;5.536;2023-10-31T09:06:43;26.70;;;19.48;;
59786;SDS011;45672;51.612;5.536;2023-10-31T09:09:08;23.52;;;19.80;;
59786;SDS011;45672;51.612;5.536;2023-10-31T09:11:35;21.77;;;19.25;;
59786;SDS011;45672;51.612;5.536;2023-10-31T09:14:00;21.85;;;18.48;;
59786;SDS011;45672;51.612;5.536;2023-10-31T09:16:26;21.27;;;18.77;;
59786;SDS011;45672;51.612;5.536;2023-10-31T09:18:51;22.42;;;18.15;;
59786;SDS011;45672;51.612;5.536;2023-10-31T09:21:17;24.38;;;18.77;;
59786;SDS011;45672;51.612;5.536;2023-10-31T09:23:42;24.40;;;18.67;;
59786;SDS011;45672;51.612;5.536;2023-10-31T09:26:08;24.42;;;18.65;;
59786;SDS011;45672;51.612;5.536;2023-10-31T09:28:33;27.65;;;19.77;;
59786;SDS011;45672;51.612;5.536;2023-10-31T09:30:58;25.95;;;18.92;;
59786;SDS011;45672;51.612;5.536;2023-10-31T09:33:26;27.55;;;19.40;;
59786;SDS011;45672;51.612;5.536;2023-10-31T09:35:51;23.60;;;18.83;;
59786;SDS011;45672;51.612;5.536;2023-10-31T09:38:16;24.15;;;18.25;;
59786;SDS011;45672;51.612;5.536;2023-10-31T09:40:41;27.70;;;19.55;;
59786;SDS011;45672;51.612;5.536;2023-10-31T09:43:07;24.98;;;19.27;;
59786;SDS011;45672;51.612;5.536;2023-10-31T09:45:32;25.75;;;18.77;;
59786;SDS011;45672;51.612;5.536;2023-10-31T09:47:58;26.65;;;18.42;;
59786;SDS011;45672;51.612;5.536;2023-10-31T09:50:26;24.45;;;17.55;;
59786;SDS011;45672;51.612;5.536;2023-10-31T09:52:51;25.58;;;19.58;;
59786;SDS011;45672;51.612;5.536;2023-10-31T09:55:17;22.67;;;19.02;;
59786;SDS011;45672;51.612;5.536;2023-10-31T09:57:44;22.90;;;17.40;;
59786;SDS011;45672;51.612;5.536;2023-10-31T10:00:10;23.95;;;19.13;;
59786;SDS011;45672;51.612;5.536;2023-10-31T10:02:38;27.80;;;18.58;;
59786;SDS011;45672;51.612;5.536;2023-10-31T10:05:04;27.27;;;18.63;;
59786;SDS011;45672;51.612;5.536;2023-10-31T10:07:30;25.52;;;19.00;;
59786;SDS011;45672;51.612;5.536;2023-10-31T10:09:59;25.48;;;19.85;;
59786;SDS011;45672;51.612;5.536;2023-10-31T10:12:25;27.00;;;20.75;;
59786;SDS011;45672;51.612;5.536;2023-10-31T10:14:51;27.10;;;19.73;;
59786;SDS011;45672;51.612;5.536;2023-10-31T10:17:21;29.05;;;20.02;;
59786;SDS011;45672;51.612;5.536;2023-10-31T10:19:47;26.23;;;19.52;;
59786;SDS011;45672;51.612;5.536;2023-10-31T10:22:13;25.60;;;19.00;;
59786;SDS011;45672;51.612;5.536;2023-10-31T10:24:40;24.95;;;18.95;;
59786;SDS011;45672;51.612;5.536;2023-10-31T10:27:07;25.60;;;19.65;;
59786;SDS011;45672;51.612;5.536;2023-10-31T10:29:33;26.73;;;19.23;;
59786;SDS011;45672;51.612;5.536;2023-10-31T10:31:59;27.38;;;19.88;;
59786;SDS011;45672;51.612;5.536;2023-10-31T10:34:24;28.40;;;17.75;;
59786;SDS011;45672;51.612;5.536;2023-10-31T10:36:49;27.02;;;19.45;;
59786;SDS011;45672;51.612;5.536;2023-10-31T10:39:18;23.85;;;17.52;;
59786;SDS011;45672;51.612;5.536;2023-10-31T10:41:45;24.20;;;18.85;;
59786;SDS011;45672;51.612;5.536;2023-10-31T10:44:16;25.30;;;17.65;;
59786;SDS011;45672;51.612;5.536;2023-10-31T10:46:43;25.50;;;17.67;;
59786;SDS011;45672;51.612;5.536;2023-10-31T10:49:15;22.27;;;18.23;;
59786;SDS011;45672;51.612;5.536;2023-10-31T10:51:46;25.13;;;17.85;;
59786;SDS011;45672;51.612;5.536;2023-10-31T10:54:20;21.10;;;16.88;;
59786;SDS011;45672;51.612;5.536;2023-10-31T10:57:31;23.65;;;17.40;;
59786;SDS011;45672;51.612;5.536;2023-10-31T11:00:02;21.90;;;16.38;;
59786;SDS011;45672;51.612;5.536;2023-10-31T11:02:29;26.10;;;16.23;;
59786;SDS011;45672;51.612;5.536;2023-10-31T11:04:56;19.38;;;15.90;;
59786;SDS011;45672;51.612;5.536;2023-10-31T11:07:23;22.02;;;15.80;;
59786;SDS011;45672;51.612;5.536;2023-10-31T11:09:50;21.30;;;16.02;;
59786;SDS011;45672;51.612;5.536;2023-10-31T11:12:15;20.05;;;15.73;;
59786;SDS011;45672;51.612;5.536;2023-10-31T11:14:42;22.30;;;15.20;;
59786;SDS011;45672;51.612;5.536;2023-10-31T11:17:16;19.38;;;15.65;;
59786;SDS011;45672;51.612;5.536;2023-10-31T11:19:50;19.55;;;14.95;;
59786;SDS011;45672;51.612;5.536;2023-10-31T11:22:17;19.23;;;15.50;;
59786;SDS011;45672;51.612;5.536;2023-10-31T11:24:43;17.55;;;14.93;;
59786;SDS011;45672;51.612;5.536;2023-10-31T11:27:09;18.13;;;14.48;;
59786;SDS011;45672;51.612;5.536;2023-10-31T11:29:35;16.00;;;13.65;;
59786;SDS011;45672;51.612;5.536;2023-10-31T11:32:01;18.90;;;14.55;;
59786;SDS011;45672;51.612;5.536;2023-10-31T11:34:28;20.00;;;14.15;;
59786;SDS011;45672;51.612;5.536;2023-10-31T11:37:17;17.48;;;14.73;;
59786;SDS011;45672;51.612;5.536;2023-10-31T11:39:43;17.67;;;12.60;;
59786;SDS011;45672;51.612;5.536;2023-10-31T11:42:40;14.82;;;13.25;;
59786;SDS011;45672;51.612;5.536;2023-10-31T11:45:09;25.13;;;12.77;;
59786;SDS011;45672;51.612;5.536;2023-10-31T11:47:45;17.20;;;13.43;;
59786;SDS011;45672;51.612;5.536;2023-10-31T11:50:14;17.17;;;12.77;;
59786;SDS011;45672;51.612;5.536;2023-10-31T11:52:39;17.17;;;12.65;;
59786;SDS011;45672;51.612;5.536;2023-10-31T11:55:08;13.85;;;12.00;;
59786;SDS011;45672;51.612;5.536;2023-10-31T11:57:35;13.98;;;11.35;;
59786;SDS011;45672;51.612;5.536;2023-10-31T12:00:01;13.43;;;11.77;;
59786;SDS011;45672;51.612;5.536;2023-10-31T12:02:29;21.90;;;12.57;;
59786;SDS011;45672;51.612;5.536;2023-10-31T12:05:10;13.60;;;11.55;;
59786;SDS011;45672;51.612;5.536;2023-10-31T12:07:44;14.15;;;11.50;;
59786;SDS011;45672;51.612;5.536;2023-10-31T12:10:10;16.40;;;10.93;;
59786;SDS011;45672;51.612;5.536;2023-10-31T12:12:36;13.05;;;10.82;;
59786;SDS011;45672;51.612;5.536;2023-10-31T12:15:08;15.10;;;11.10;;
59786;SDS011;45672;51.612;5.536;2023-10-31T12:17:34;16.55;;;10.45;;
59786;SDS011;45672;51.612;5.536;2023-10-31T12:20:07;14.57;;;10.80;;
59786;SDS011;45672;51.612;5.536;2023-10-31T12:22:33;14.63;;;10.38;;
59786;SDS011;45672;51.612;5.536;2023-10-31T12:25:03;11.93;;;10.65;;
59786;SDS011;45672;51.612;5.536;2023-10-31T12:27:45;12.45;;;10.15;;
59786;SDS011;45672;51.612;5.536;2023-10-31T12:30:12;13.30;;;9.73;;
59786;SDS011;45672;51.612;5.536;2023-10-31T12:32:39;10.85;;;9.75;;
59786;SDS011;45672;51.612;5.536;2023-10-31T12:35:05;10.73;;;9.55;;
59786;SDS011;45672;51.612;5.536;2023-10-31T12:37:31;10.73;;;7.78;;
59786;SDS011;45672;51.612;5.536;2023-10-31T12:39:58;10.55;;;7.72;;
59786;SDS011;45672;51.612;5.536;2023-10-31T12:42:27;9.05;;;7.70;;
59786;SDS011;45672;51.612;5.536;2023-10-31T12:44:55;8.35;;;7.15;;
59786;SDS011;45672;51.612;5.536;2023-10-31T12:47:21;9.93;;;7.22;;
59786;SDS011;45672;51.612;5.536;2023-10-31T12:49:47;6.60;;;5.80;;
59786;SDS011;45672;51.612;5.536;2023-10-31T12:52:12;6.75;;;5.85;;
59786;SDS011;45672;51.612;5.536;2023-10-31T12:54:38;7.13;;;5.85;;
59786;SDS011;45672;51.612;5.536;2023-10-31T12:57:04;8.35;;;4.80;;
59786;SDS011;45672;51.612;5.536;2023-10-31T12:59:33;9.27;;;4.43;;
59786;SDS011;45672;51.612;5.536;2023-10-31T13:01:59;8.30;;;5.03;;
59786;SDS011;45672;51.612;5.536;2023-10-31T13:04:25;5.28;;;4.75;;
59786;SDS011;45672;51.612;5.536;2023-10-31T13:06:55;5.10;;;4.55;;
59786;SDS011;45672;51.612;5.536;2023-10-31T13:09:20;9.50;;;4.53;;
59786;SDS011;45672;51.612;5.536;2023-10-31T13:11:46;5.57;;;4.55;;
59786;SDS011;45672;51.612;5.536;2023-10-31T13:14:12;5.40;;;4.72;;
59786;SDS011;45672;51.612;5.536;2023-10-31T13:16:38;5.68;;;4.28;;
59786;SDS011;45672;51.612;5.536;2023-10-31T13:19:04;6.25;;;4.20;;
59786;SDS011;45672;51.612;5.536;2023-10-31T13:21:29;5.03;;;4.50;;
59786;SDS011;45672;51.612;5.536;2023-10-31T13:23:54;5.15;;;4.63;;
59786;SDS011;45672;51.612;5.536;2023-10-31T13:26:19;8.20;;;3.92;;
59786;SDS011;45672;51.612;5.536;2023-10-31T13:28:45;5.07;;;4.57;;
59786;SDS011;45672;51.612;5.536;2023-10-31T13:31:10;4.38;;;4.07;;
59786;SDS011;45672;51.612;5.536;2023-10-31T13:33:36;6.00;;;3.92;;
59786;SDS011;45672;51.612;5.536;2023-10-31T13:36:01;4.70;;;4.15;;
59786;SDS011;45672;51.612;5.536;2023-10-31T13:38:29;5.07;;;4.22;;
59786;SDS011;45672;51.612;5.536;2023-10-31T13:40:54;6.07;;;3.72;;
59786;SDS011;45672;51.612;5.536;2023-10-31T13:43:19;6.82;;;4.20;;
59786;SDS011;45672;51.612;5.536;2023-10-31T13:45:45;6.63;;;4.07;;
59786;SDS011;45672;51.612;5.536;2023-10-31T13:48:10;4.68;;;3.70;;
59786;SDS011;45672;51.612;5.536;2023-10-31T13:50:38;3.92;;;3.60;;
59786;SDS011;45672;51.612;5.536;2023-10-31T13:53:03;5.95;;;3.80;;
59786;SDS011;45672;51.612;5.536;2023-10-31T13:55:31;5.40;;;2.95;;
59786;SDS011;45672;51.612;5.536;2023-10-31T13:57:56;7.10;;;3.13;;
59786;SDS011;45672;51.612;5.536;2023-10-31T14:00:22;5.18;;;3.50;;
59786;SDS011;45672;51.612;5.536;2023-10-31T14:02:47;10.82;;;3.15;;
59786;SDS011;45672;51.612;5.536;2023-10-31T14:05:13;5.18;;;3.35;;
59786;SDS011;45672;51.612;5.536;2023-10-31T14:07:38;5.40;;;2.83;;
59786;SDS011;45672;51.612;5.536;2023-10-31T14:10:04;5.55;;;3.00;;
59786;SDS011;45672;51.612;5.536;2023-10-31T14:12:30;6.80;;;4.25;;
59786;SDS011;45672;51.612;5.536;2023-10-31T14:14:56;7.88;;;2.90;;
59786;SDS011;45672;51.612;5.536;2023-10-31T14:17:21;5.25;;;2.75;;
59786;SDS011;45672;51.612;5.536;2023-10-31T14:19:48;3.90;;;2.85;;